CST,Max TemperatureF,Mean TemperatureF,Min TemperatureF,Max Dew PointF,MeanDew PointF,Min DewpointF,Max Humidity, Mean Humidity, Min Humidity, Max Sea Level PressureIn, Mean Sea Level PressureIn, Min Sea Level PressureIn, Max VisibilityMiles, Mean VisibilityMiles, Min VisibilityMiles, Max Wind SpeedMPH, Mean Wind SpeedMPH, Max Gust SpeedMPH,PrecipitationIn, CloudCover, Events, WindDirDegrees
2013-2-1,-5,-17,-29,-15,-24,-36,77,66,50,30.10,30.05,29.99,10,10,10,9,4,,0.00,3,,279
2013-2-2,5,-14,-32,-2,-17,-40,85,68,51,30.06,29.97,29.84,10,10,7,8,1,,0.00,3,Snow,234
2013-2-3,3,-6,-16,-4,-11,-24,84,72,56,29.94,29.90,29.83,10,10,7,13,8,18,0.00,2,,304
2013-2-4,6,-12,-31,1,-14,-38,85,70,61,29.94,29.83,29.57,10,8,1,8,1,,0.00,5,Snow,163
2013-2-5,12,4,-5,3,-3,-9,85,75,53,29.98,29.78,29.54,10,8,1,8,3,,0.02,4,Snow,298
2013-2-6,17,6,-4,14,5,-9,92,77,62,30.08,29.99,29.96,10,8,1,5,1,,0.00,7,Snow,137
2013-2-7,21,10,0,12,6,-6,92,81,63,30.25,30.18,30.09,10,8,3,5,0,,0.00,6,Snow,295
2013-2-8,24,16,8,12,11,5,92,79,59,30.29,30.23,30.12,10,9,5,10,3,,0.00,6,Snow,147
2013-2-9,24,20,15,23,17,10,93,86,73,30.11,29.96,29.90,10,6,2,13,8,18,0.00,6,,167
2013-2-10,26,25,24,23,22,21,93,87,86,29.91,29.67,29.43,10,4,0,8,2,,0.22,7,Snow,61
2013-2-11,24,18,12,21,14,5,93,82,68,29.88,29.67,29.44,10,7,1,12,5,17,0.05,8,Snow,316
2013-2-12,28,14,1,19,14,0,93,82,63,29.93,29.72,29.62,10,10,7,9,4,,0.00,4,Snow,204
2013-2-13,28,21,14,25,18,12,93,88,74,29.62,29.59,29.56,10,9,0,4,0,,0.01,5,Fog,297
2013-2-14,23,14,6,19,6,0,93,70,45,30.05,29.88,29.63,10,10,7,12,4,17,0.00,5,Snow,318
2013-2-15,10,0,-9,0,-5,-15,85,75,57,30.18,30.14,30.06,10,10,10,14,6,21,0.00,3,,305
2013-2-16,14,-2,-18,1,-10,-26,92,68,41,30.12,30.07,29.99,10,9,0,6,1,,0.00,1,,137
2013-2-17,24,12,0,16,6,-8,80,69,62,29.98,29.75,29.56,10,9,2,18,8,28,0.00,4,Snow,153
2013-2-18,30,16,0,28,12,-8,93,78,69,29.79,29.57,29.46,10,8,0,14,7,23,0.02,7,Snow,298
2013-2-19,3,-3,-9,-8,-12,-17,78,68,55,30.33,30.06,29.80,10,10,7,14,9,23,0.00,2,,322
2013-2-20,12,-2,-16,-11,-17,-22,77,54,24,30.43,30.40,30.33,10,10,10,5,1,,0.00,0,,11
2013-2-21,24,3,-18,5,-10,-24,84,52,17,30.44,30.34,30.19,10,10,10,8,1,,0.00,0,,122
2013-2-22,26,18,10,21,16,5,93,84,74,30.18,29.96,29.83,10,8,1,8,1,,0.04,8,Snow,77
2013-2-23,32,21,10,19,16,9,93,79,55,29.86,29.79,29.76,10,10,10,7,1,,0.00,2,Snow,295
2013-2-24,35,16,-2,19,11,-6,93,74,48,29.99,29.95,29.86,10,10,10,5,0,,0.00,0,,291
2013-2-25,30,22,14,21,17,10,93,83,69,30.00,29.98,29.96,10,10,10,8,2,,0.00,5,,182
2013-2-26,41,22,3,21,14,0,93,72,36,30.03,29.99,29.97,10,10,7,5,1,,0.00,0,,184
2013-2-27,37,22,8,19,16,7,93,73,48,30.09,29.99,29.94,10,10,10,7,2,,0.00,3,,11
2013-2-28,28,22,15,18,10,3,80,61,43,30.28,30.20,30.09,10,10,10,7,3,,0.00,4,,29